Time;durP1;ratioP1;P1;durP2;ratioP2;P2;SDS_P1;SDS_P2;PMS_P1;PMS_P2;Temp;Humidity;BMP_temperature;BMP_pressure;BME280_temperature;BME280_humidity;BME280_pressure;Samples;Min_cycle;Max_cycle;Signal;HPM_P1;HPM_P2
2022/11/08 04:02:00;;;;;;;10.00;3.10;;;11.40;99.90;;;;;;6165063;23;20017;-75
2022/11/08 04:04:26;;;;;;;12.30;3.35;;;11.50;99.90;;;;;;6184934;23;20083;-77
2022/11/08 04:06:52;;;;;;;9.57;2.90;;;11.50;99.90;;;;;;6186843;23;20087;-77
2022/11/08 04:09:17;;;;;;;8.90;2.95;;;11.40;99.90;;;;;;6185080;23;20013;-75
2022/11/08 04:17:11;;;;;;;9.35;3.03;;;11.40;99.90;;;;;;6154931;23;20013;-78
2022/11/08 04:22:20;;;;;;;10.93;3.50;;;11.40;99.90;;;;;;6154605;23;20076;-76
2022/11/08 04:24:46;;;;;;;10.65;3.65;;;11.40;99.90;;;;;;6179680;23;20013;-78
2022/11/08 04:27:12;;;;;;;11.90;3.22;;;11.40;99.90;;;;;;6154715;23;20021;-77
2022/11/08 04:29:37;;;;;;;10.65;3.40;;;11.40;99.90;;;;;;6154615;23;20028;-77
2022/11/08 04:32:03;;;;;;;9.45;3.47;;;11.40;99.90;;;;;;6179352;23;20021;-76
2022/11/08 04:34:29;;;;;;;11.18;2.88;;;11.40;99.90;;;;;;6154871;23;20652;-77
2022/11/08 04:36:55;;;;;;;9.48;2.95;;;11.40;99.90;;;;;;6154795;23;20009;-77
2022/11/08 04:39:20;;;;;;;10.93;3.85;;;11.40;99.90;;;;;;6179459;23;20064;-76
2022/11/08 04:41:46;;;;;;;11.02;3.15;;;11.40;99.90;;;;;;6154368;23;20092;-79
2022/11/08 04:44:14;;;;;;;12.85;3.50;;;11.40;99.90;;;;;;6154552;23;20025;-77
2022/11/08 04:46:39;;;;;;;10.65;2.92;;;11.40;99.90;;;;;;6154746;23;20044;-76
2022/11/08 04:49:05;;;;;;;15.00;4.22;;;11.40;99.90;;;;;;6154922;23;20459;-77
2022/11/08 04:51:32;;;;;;;16.60;4.13;;;11.40;99.90;;;;;;6154609;23;20016;-77
2022/11/08 04:54:00;;;;;;;10.68;2.85;;;11.40;99.90;;;;;;6130619;23;20010;-78
2022/11/08 04:56:27;;;;;;;7.88;3.00;;;11.40;99.90;;;;;;6156517;23;20100;-77
2022/11/08 04:58:55;;;;;;;10.32;2.90;;;11.40;99.90;;;;;;6179438;23;20037;-78
2022/11/08 05:01:23;;;;;;;14.27;3.30;;;11.40;99.90;;;;;;6155164;23;20065;-77
2022/11/08 05:03:50;;;;;;;9.90;2.72;;;11.40;99.90;;;;;;6179932;23;20451;-79
2022/11/08 05:06:19;;;;;;;10.27;3.08;;;11.40;99.90;;;;;;6179389;23;20049;-78
2022/11/08 05:08:45;;;;;;;11.23;3.75;;;11.40;99.90;;;;;;6179392;23;20196;-76
2022/11/08 05:11:22;;;;;;;11.23;3.17;;;11.40;99.90;;;;;;6154881;23;20041;-78
2022/11/08 05:13:50;;;;;;;10.77;3.22;;;11.40;99.90;;;;;;6156938;23;20025;-76
2022/11/08 05:16:24;;;;;;;11.95;3.00;;;11.40;99.90;;;;;;6179998;23;20021;-79
2022/11/08 05:18:49;;;;;;;15.25;3.53;;;11.40;99.90;;;;;;6155063;23;20017;-78
2022/11/08 05:24:03;;;;;;;12.10;3.25;;;11.40;99.90;;;;;;6154930;23;20060;-78
2022/11/08 05:26:31;;;;;;;11.75;2.70;;;11.30;99.90;;;;;;6155484;23;20181;-77
2022/11/08 05:28:57;;;;;;;9.77;2.72;;;11.30;99.90;;;;;;6180086;23;20451;-79
2022/11/08 05:31:23;;;;;;;8.50;3.10;;;11.30;99.90;;;;;;6156584;23;20072;-76
2022/11/08 05:33:48;;;;;;;12.38;2.95;;;11.30;99.90;;;;;;6154441;23;20107;-79
2022/11/08 05:36:15;;;;;;;9.82;2.70;;;11.30;99.90;;;;;;6154802;23;20098;-78
2022/11/08 05:38:41;;;;;;;8.93;2.45;;;11.30;99.90;;;;;;6179858;23;20006;-76
2022/11/08 05:41:09;;;;;;;8.73;2.47;;;11.30;99.90;;;;;;6179657;23;20010;-76
2022/11/08 05:43:35;;;;;;;9.55;2.30;;;11.20;99.90;;;;;;6155561;23;20024;-78
2022/11/08 05:46:01;;;;;;;10.15;2.60;;;11.20;99.90;;;;;;6155480;23;20014;-77
2022/11/08 05:48:26;;;;;;;7.38;2.55;;;11.20;99.90;;;;;;6181335;23;20021;-81
2022/11/08 05:50:52;;;;;;;7.88;2.75;;;11.20;99.90;;;;;;6156761;23;20012;-80
2022/11/08 05:53:18;;;;;;;11.00;3.40;;;11.10;99.90;;;;;;6156842;23;20093;-77
2022/11/08 05:55:44;;;;;;;6.55;2.40;;;11.10;99.90;;;;;;6155276;23;20014;-75
2022/11/08 05:58:09;;;;;;;9.20;2.45;;;11.20;99.90;;;;;;6155273;23;20013;-79
2022/11/08 06:00:35;;;;;;;8.35;2.63;;;11.10;99.90;;;;;;6157151;23;20013;-77
2022/11/08 06:03:02;;;;;;;6.60;2.30;;;11.10;99.90;;;;;;6157357;23;20049;-78
2022/11/08 06:05:27;;;;;;;10.40;2.60;;;11.10;99.90;;;;;;6158461;23;20084;-80
2022/11/08 06:07:53;;;;;;;14.05;2.80;;;11.10;99.90;;;;;;6159199;23;20005;-75
2022/11/08 06:10:19;;;;;;;12.23;3.10;;;11.10;99.90;;;;;;6156939;23;20013;-78
2022/11/08 06:12:45;;;;;;;7.60;2.67;;;11.10;99.90;;;;;;6156830;23;20017;-77
2022/11/08 06:15:11;;;;;;;9.68;2.50;;;11.00;99.90;;;;;;6157169;23;20092;-78
2022/11/08 06:17:36;;;;;;;11.82;2.72;;;11.00;99.90;;;;;;6156872;23;20113;-76
2022/11/08 06:20:03;;;;;;;9.57;2.42;;;11.00;99.90;;;;;;6156808;23;20018;-77
2022/11/08 06:22:31;;;;;;;6.03;2.15;;;11.00;99.90;;;;;;6182311;23;20048;-77
2022/11/08 06:24:57;;;;;;;8.68;2.40;;;11.00;99.90;;;;;;6181338;23;20117;-77
2022/11/08 06:27:22;;;;;;;8.95;2.25;;;11.00;99.90;;;;;;6156289;23;20074;-78
2022/11/08 06:29:48;;;;;;;7.82;2.45;;;10.90;99.90;;;;;;6156057;23;20052;-77
2022/11/08 06:32:14;;;;;;;7.25;2.50;;;10.90;99.90;;;;;;6156388;23;20021;-77
2022/11/08 06:34:40;;;;;;;8.18;2.00;;;10.90;99.90;;;;;;6179559;23;20017;-76
2022/11/08 06:37:06;;;;;;;6.38;2.00;;;11.00;99.90;;;;;;6156461;23;20021;-77
2022/11/08 06:39:32;;;;;;;8.35;2.92;;;11.00;99.90;;;;;;6157453;23;20085;-78
2022/11/08 06:41:59;;;;;;;8.20;2.20;;;11.00;99.90;;;;;;6179843;23;20081;-80
2022/11/08 06:44:25;;;;;;;6.32;2.58;;;11.00;99.90;;;;;;6157435;23;20017;-78
2022/11/08 06:46:54;;;;;;;4.50;2.03;;;11.10;99.90;;;;;;6154817;23;20081;-77
2022/11/08 06:49:22;;;;;;;6.13;1.90;;;11.10;99.90;;;;;;6156669;23;20084;-77
2022/11/08 06:51:48;;;;;;;8.93;2.08;;;11.10;99.90;;;;;;6156374;23;20474;-79
2022/11/08 06:54:13;;;;;;;7.53;2.60;;;11.20;99.90;;;;;;6156625;23;20045;-77
2022/11/08 06:56:39;;;;;;;6.78;2.30;;;11.10;99.90;;;;;;6154956;23;20020;-78
2022/11/08 06:59:05;;;;;;;6.05;2.17;;;11.20;99.90;;;;;;6158144;23;20010;-79
2022/11/08 07:01:30;;;;;;;7.97;2.15;;;11.20;99.90;;;;;;6157728;23;20339;-79
2022/11/08 07:03:56;;;;;;;8.32;2.75;;;11.30;99.90;;;;;;6155656;23;20439;-77
2022/11/08 07:06:21;;;;;;;6.90;2.97;;;11.30;99.90;;;;;;6130127;23;20479;-78
2022/11/08 07:08:47;;;;;;;9.63;3.05;;;11.30;99.90;;;;;;6155471;23;20017;-79
2022/11/08 07:11:13;;;;;;;6.53;2.13;;;11.30;99.90;;;;;;6131352;23;20016;-81
2022/11/08 07:13:39;;;;;;;9.30;2.53;;;11.30;99.90;;;;;;6157787;23;20391;-81
2022/11/08 07:16:04;;;;;;;10.07;3.08;;;11.30;99.90;;;;;;6156041;23;20068;-79
2022/11/08 07:18:30;;;;;;;5.72;2.33;;;11.40;99.90;;;;;;6155807;23;20042;-80
2022/11/08 07:21:00;;;;;;;8.82;2.63;;;11.40;99.90;;;;;;6180370;23;20024;-81
2022/11/08 07:23:26;;;;;;;7.13;2.78;;;11.40;99.90;;;;;;6157252;23;20423;-78
2022/11/08 07:25:52;;;;;;;5.30;2.20;;;11.40;99.90;;;;;;6158029;23;20312;-82
2022/11/08 07:28:18;;;;;;;13.32;3.42;;;11.50;99.90;;;;;;6155935;23;20009;-80
2022/11/08 07:30:45;;;;;;;9.00;3.42;;;11.50;99.90;;;;;;6131519;23;20340;-79
2022/11/08 07:33:12;;;;;;;6.60;2.80;;;11.50;99.90;;;;;;6157130;23;20017;-80
2022/11/08 07:35:38;;;;;;;8.85;2.90;;;11.50;99.90;;;;;;6157226;23;20010;-81
2022/11/08 07:38:04;;;;;;;12.15;2.83;;;11.60;99.90;;;;;;6157713;23;20021;-80
2022/11/08 07:40:29;;;;;;;9.63;3.13;;;11.60;99.90;;;;;;6158213;23;20009;-82
2022/11/08 07:42:59;;;;;;;6.15;2.63;;;11.60;99.90;;;;;;6155670;23;20075;-78
2022/11/08 07:45:25;;;;;;;9.38;2.90;;;11.60;99.90;;;;;;6155734;23;20041;-80
2022/11/08 07:47:58;;;;;;;8.63;2.88;;;11.60;99.90;;;;;;6157678;23;20045;-79
2022/11/08 07:50:24;;;;;;;7.30;2.80;;;11.70;99.90;;;;;;6180575;23;20100;-80
2022/11/08 07:52:50;;;;;;;8.52;2.90;;;11.70;99.90;;;;;;6181530;23;20045;-82
2022/11/08 07:55:15;;;;;;;10.23;3.28;;;11.70;99.90;;;;;;6156196;23;20017;-80
2022/11/08 07:57:41;;;;;;;9.05;3.03;;;11.70;99.90;;;;;;6157842;23;20006;-79
2022/11/08 08:00:07;;;;;;;11.35;3.55;;;11.80;99.90;;;;;;6156539;23;20017;-79
2022/11/08 08:02:33;;;;;;;8.52;3.03;;;11.80;99.90;;;;;;6157947;23;20045;-80
2022/11/08 08:04:59;;;;;;;8.88;3.00;;;11.80;99.90;;;;;;6158071;23;20332;-81
2022/11/08 08:07:24;;;;;;;8.13;3.20;;;11.80;99.90;;;;;;6156111;23;20435;-80
2022/11/08 08:09:50;;;;;;;10.23;3.28;;;11.90;99.90;;;;;;6156194;23;20017;-83
2022/11/08 08:12:16;;;;;;;12.13;4.05;;;11.80;99.90;;;;;;6157179;23;20021;-77
2022/11/08 08:14:41;;;;;;;13.85;5.18;;;11.90;99.90;;;;;;6156975;23;20336;-83
2022/11/08 08:17:07;;;;;;;14.52;5.30;;;11.90;99.90;;;;;;6155319;23;20018;-81
2022/11/08 08:19:32;;;;;;;17.27;5.78;;;11.90;99.90;;;;;;6155098;23;20010;-79
2022/11/08 08:21:58;;;;;;;11.32;5.35;;;12.00;99.90;;;;;;6179768;23;20049;-82
2022/11/08 08:24:25;;;;;;;19.70;6.60;;;12.00;99.90;;;;;;6155406;23;20096;-78
2022/11/08 08:26:51;;;;;;;13.55;5.15;;;12.20;99.90;;;;;;6156860;23;20020;-81
2022/11/08 08:29:17;;;;;;;11.50;4.50;;;12.20;99.90;;;;;;6131015;23;20021;-79
2022/11/08 08:31:42;;;;;;;13.50;4.45;;;12.30;99.90;;;;;;6155141;23;20019;-78
2022/11/08 08:34:11;;;;;;;8.75;3.60;;;12.30;99.90;;;;;;6128646;23;20013;-81
2022/11/08 08:36:36;;;;;;;9.75;3.33;;;12.40;99.90;;;;;;6154860;23;20010;-83
2022/11/08 08:39:02;;;;;;;6.43;2.90;;;12.40;99.90;;;;;;6130806;23;20391;-84
2022/11/08 08:41:28;;;;;;;8.93;2.60;;;12.50;99.90;;;;;;6155607;23;20014;-79
2022/11/08 08:43:54;;;;;;;6.45;3.00;;;12.70;99.90;;;;;;6155304;23;20020;-80
2022/11/08 08:46:19;;;;;;;9.38;2.63;;;12.90;99.90;;;;;;6180303;23;20105;-83
2022/11/08 08:48:45;;;;;;;4.70;2.30;;;13.20;99.90;;;;;;6154988;23;20021;-81
2022/11/08 08:51:11;;;;;;;5.18;2.47;;;13.40;99.90;;;;;;6180158;23;20014;-80
2022/11/08 08:53:37;;;;;;;7.20;2.47;;;13.50;99.90;;;;;;6154939;23;20049;-83
2022/11/08 08:56:06;;;;;;;11.10;3.30;;;13.50;99.90;;;;;;6154752;23;20020;-82
2022/11/08 08:58:32;;;;;;;4.97;2.33;;;13.50;99.90;;;;;;6179193;23;20332;-84
2022/11/08 09:01:07;;;;;;;8.25;3.30;;;13.40;99.90;;;;;;6154605;23;20021;-83
2022/11/08 09:03:34;;;;;;;5.85;2.60;;;13.30;99.90;;;;;;6155850;23;20017;-79
2022/11/08 09:06:01;;;;;;;5.25;2.35;;;13.10;99.90;;;;;;6155215;23;20439;-81
2022/11/08 09:08:27;;;;;;;5.50;2.42;;;13.10;99.90;;;;;;6179791;23;20033;-79
2022/11/08 09:10:58;;;;;;;6.95;2.35;;;13.00;99.90;;;;;;6156079;23;20126;-80
2022/11/08 09:13:25;;;;;;;5.93;2.80;;;13.00;99.90;;;;;;6179032;23;20014;-82
2022/11/08 09:15:51;;;;;;;6.60;2.60;;;13.00;99.90;;;;;;6154839;23;20014;-81
2022/11/08 09:18:18;;;;;;;8.73;2.60;;;12.90;99.90;;;;;;6179576;23;20085;-78
2022/11/08 09:20:44;;;;;;;5.15;2.45;;;12.90;99.90;;;;;;6179483;23;20014;-81
2022/11/08 09:23:10;;;;;;;6.57;2.38;;;12.90;99.90;;;;;;6155133;23;20024;-81
2022/11/08 09:25:37;;;;;;;7.47;2.58;;;12.90;99.90;;;;;;6156833;23;20017;-79
2022/11/08 09:28:03;;;;;;;7.03;2.30;;;12.90;99.90;;;;;;6156772;23;20056;-81
2022/11/08 09:30:29;;;;;;;6.30;2.20;;;12.90;99.90;;;;;;6154742;23;20504;-84
2022/11/08 09:32:54;;;;;;;6.55;2.33;;;12.90;99.90;;;;;;6154978;23;20021;-81
2022/11/08 09:35:20;;;;;;;5.88;2.33;;;12.90;99.90;;;;;;6154564;23;20075;-82
2022/11/08 09:37:46;;;;;;;7.00;2.25;;;12.90;99.90;;;;;;6180085;23;20343;-87
2022/11/08 09:40:41;;;;;;;6.20;2.20;;;12.90;99.90;;;;;;6155461;23;20009;-82
2022/11/08 09:43:45;;;;;;;6.68;2.10;;;12.90;99.90;;;;;;6156101;23;20021;-83
2022/11/08 09:46:22;;;;;;;6.82;2.20;;;12.90;99.90;;;;;;6154829;23;20024;-82
2022/11/08 09:48:48;;;;;;;5.40;2.08;;;13.00;99.90;;;;;;6154630;23;20323;-84
2022/11/08 09:51:17;;;;;;;6.75;1.80;;;13.00;99.90;;;;;;6154319;23;20021;-80
2022/11/08 09:53:42;;;;;;;4.25;2.20;;;13.00;99.90;;;;;;6179680;23;20017;-83
2022/11/08 09:56:26;;;;;;;4.13;1.92;;;13.00;99.90;;;;;;6154672;23;20052;-84
2022/11/08 09:59:03;;;;;;;5.63;2.25;;;13.00;99.90;;;;;;6154840;23;20033;-82
2022/11/08 10:01:31;;;;;;;5.65;2.03;;;13.10;99.90;;;;;;6154618;23;20491;-80
2022/11/08 10:04:01;;;;;;;4.22;2.00;;;13.10;99.90;;;;;;6179724;23;20455;-83
2022/11/08 10:06:40;;;;;;;6.75;2.20;;;13.10;99.90;;;;;;6183241;23;20013;-78
2022/11/08 10:09:21;;;;;;;5.32;2.33;;;13.20;99.90;;;;;;6162973;23;20053;-78
2022/11/08 10:12:04;;;;;;;5.68;2.30;;;13.10;99.90;;;;;;6156766;23;20092;-83
2022/11/08 10:14:42;;;;;;;7.15;2.00;;;13.10;99.90;;;;;;6155063;23;20013;-81
2022/11/08 10:17:11;;;;;;;3.60;1.98;;;13.10;99.90;;;;;;6154855;23;20009;-82
2022/11/08 10:19:59;;;;;;;13.45;2.70;;;13.10;99.90;;;;;;6179710;23;20469;-85
2022/11/08 10:22:53;;;;;;;6.60;2.17;;;13.10;99.90;;;;;;6154652;23;20436;-81
2022/11/08 10:25:45;;;;;;;7.32;1.98;;;13.10;99.90;;;;;;6129840;23;20076;-83
2022/11/08 10:28:16;;;;;;;5.07;1.95;;;13.10;99.90;;;;;;6171565;23;20403;-82
2022/11/08 10:30:47;;;;;;;4.80;2.13;;;13.10;99.90;;;;;;6179840;23;20041;-82
2022/11/08 10:33:30;;;;;;;3.67;1.95;;;13.00;99.90;;;;;;6179566;23;20024;-83
2022/11/08 10:36:00;;;;;;;7.78;2.70;;;13.00;99.90;;;;;;6154468;23;20461;-82
2022/11/08 10:38:43;;;;;;;5.65;1.90;;;13.10;99.90;;;;;;6154564;23;20098;-81
2022/11/08 10:41:17;;;;;;;4.60;2.08;;;13.00;99.90;;;;;;6154609;23;20009;-86
2022/11/08 10:44:01;;;;;;;5.82;2.45;;;13.10;99.90;;;;;;6156282;23;20014;-82
2022/11/08 10:46:35;;;;;;;5.05;2.20;;;13.10;99.90;;;;;;6156148;23;20014;-81
2022/11/08 10:49:21;;;;;;;5.38;2.58;;;13.10;99.90;;;;;;6157552;23;20048;-83
2022/11/08 10:51:53;;;;;;;7.70;2.20;;;13.20;99.90;;;;;;6157494;23;20486;-83
2022/11/08 10:54:51;;;;;;;5.47;1.85;;;13.20;99.90;;;;;;6131655;23;20036;-81
2022/11/08 10:57:28;;;;;;;9.13;2.03;;;13.20;99.90;;;;;;6180872;23;20024;-83
2022/11/08 10:59:55;;;;;;;7.47;2.38;;;13.30;99.90;;;;;;6156797;23;20013;-81
2022/11/08 11:02:32;;;;;;;4.15;1.83;;;13.40;99.90;;;;;;6132440;23;20428;-83
2022/11/08 11:05:20;;;;;;;4.85;2.15;;;13.30;99.90;;;;;;6157781;23;20424;-83
2022/11/08 11:08:04;;;;;;;4.18;1.85;;;13.40;99.90;;;;;;6156006;23;20045;-80
2022/11/08 11:10:35;;;;;;;5.15;2.42;;;13.50;99.90;;;;;;6156102;23;20091;-80
2022/11/08 11:13:01;;;;;;;6.45;2.80;;;13.50;99.90;;;;;;6181361;23;20399;-84
2022/11/08 11:15:45;;;;;;;7.25;2.22;;;13.50;99.90;;;;;;6156019;23;20074;-83
2022/11/08 11:18:23;;;;;;;3.95;2.00;;;13.50;99.90;;;;;;6155893;23;20424;-82
2022/11/08 11:21:07;;;;;;;5.93;2.00;;;13.60;99.90;;;;;;6157980;23;20016;-82
2022/11/08 11:23:35;;;;;;;6.78;2.20;;;13.60;99.90;;;;;;6155859;23;20021;-83
2022/11/08 11:26:03;;;;;;;4.85;2.10;;;13.60;99.90;;;;;;6180735;23;20460;-81
2022/11/08 11:28:29;;;;;;;5.35;2.00;;;13.60;99.90;;;;;;6156306;23;20017;-82
2022/11/08 11:31:01;;;;;;;5.13;2.50;;;13.60;99.90;;;;;;6156155;23;20052;-86
2022/11/08 11:33:28;;;;;;;8.85;2.72;;;13.60;99.90;;;;;;6157871;23;20367;-84
2022/11/08 11:35:58;;;;;;;9.18;2.20;;;13.60;99.90;;;;;;6157086;23;20020;-83
2022/11/08 11:38:35;;;;;;;4.15;2.47;;;13.60;99.90;;;;;;6156961;23;20447;-81
2022/11/08 11:41:08;;;;;;;4.60;2.00;;;13.60;99.90;;;;;;6155607;23;20020;-81
2022/11/08 11:43:43;;;;;;;4.40;1.63;;;13.60;99.90;;;;;;6157293;23;20020;-80
2022/11/08 11:46:14;;;;;;;6.95;2.00;;;13.60;99.90;;;;;;6157730;23;20016;-83
2022/11/08 11:48:56;;;;;;;6.05;1.98;;;13.70;99.90;;;;;;6180478;23;20041;-82
2022/11/08 11:51:27;;;;;;;4.35;1.90;;;13.70;99.90;;;;;;6179987;23;20017;-82
2022/11/08 11:53:53;;;;;;;6.95;1.98;;;13.70;99.90;;;;;;6157458;23;20068;-80
2022/11/08 11:56:36;;;;;;;6.38;2.10;;;13.70;99.90;;;;;;6155281;23;20427;-80
2022/11/08 11:59:26;;;;;;;5.78;1.73;;;13.70;99.90;;;;;;6156482;23;20370;-82
2022/11/08 12:02:01;;;;;;;5.10;1.90;;;13.70;99.90;;;;;;6180535;23;20009;-81
2022/11/08 12:04:41;;;;;;;3.97;1.70;;;13.70;99.90;;;;;;6156193;23;20024;-81
2022/11/08 12:07:29;;;;;;;4.53;1.65;;;13.80;99.90;;;;;;6156014;23;20020;-85
2022/11/08 12:10:16;;;;;;;6.72;1.67;;;13.80;99.90;;;;;;6182956;23;20048;-81
2022/11/08 12:13:17;;;;;;;3.60;1.63;;;13.80;99.90;;;;;;6156159;23;20064;-82
2022/11/08 12:15:49;;;;;;;6.20;1.98;;;13.80;99.90;;;;;;6137400;23;20009;-85
2022/11/08 12:18:38;;;;;;;6.60;2.30;;;13.80;99.90;;;;;;6155143;23;20017;-81
2022/11/08 12:21:26;;;;;;;4.78;2.00;;;13.90;99.90;;;;;;6155659;23;20021;-84
2022/11/08 12:23:57;;;;;;;5.70;1.88;;;13.90;99.90;;;;;;6156057;23;20088;-81
2022/11/08 12:26:45;;;;;;;3.58;1.50;;;13.90;99.90;;;;;;6156031;23;20024;-81
2022/11/08 12:29:28;;;;;;;4.03;1.55;;;14.00;99.90;;;;;;6156114;23;20022;-81
2022/11/08 12:32:09;;;;;;;4.57;1.52;;;14.10;99.90;;;;;;6180135;23;20345;-83
2022/11/08 12:34:57;;;;;;;4.07;1.50;;;14.20;99.90;;;;;;6157952;23;20014;-84
2022/11/08 12:37:35;;;;;;;6.10;1.60;;;14.30;99.90;;;;;;6155286;23;20014;-81
2022/11/08 12:40:19;;;;;;;4.32;1.50;;;14.50;99.90;;;;;;6155194;23;20013;-83
2022/11/08 12:42:48;;;;;;;8.95;1.50;;;14.70;99.90;;;;;;6155251;23;20017;-83
2022/11/08 12:45:33;;;;;;;3.03;1.17;;;14.80;99.90;;;;;;6155234;23;20084;-83
2022/11/08 12:48:41;;;;;;;3.85;1.65;;;14.80;99.90;;;;;;6157234;23;20009;-84
2022/11/08 12:51:23;;;;;;;4.38;1.55;;;14.90;99.90;;;;;;6155855;23;20017;-84
2022/11/08 12:54:09;;;;;;;3.92;1.33;;;15.10;99.90;;;;;;6155144;23;20013;-84
2022/11/08 12:56:44;;;;;;;4.88;1.70;;;15.40;99.90;;;;;;6157264;23;20021;-84
2022/11/08 12:59:24;;;;;;;3.28;1.50;;;15.60;99.90;;;;;;6155511;23;20440;-87
2022/11/08 13:01:51;;;;;;;4.15;1.38;;;15.70;99.90;;;;;;6179832;23;20347;-81
2022/11/08 13:04:29;;;;;;;3.72;1.75;;;15.60;99.90;;;;;;6155383;23;20013;-83
2022/11/08 13:07:02;;;;;;;5.20;1.67;;;15.60;99.90;;;;;;6181338;23;20040;-80
2022/11/08 13:09:50;;;;;;;3.78;1.55;;;15.60;99.90;;;;;;6155954;23;20017;-84
2022/11/08 13:12:39;;;;;;;4.30;1.40;;;15.60;99.90;;;;;;6154652;23;20277;-82
2022/11/08 13:15:15;;;;;;;4.45;1.40;;;15.60;99.90;;;;;;6131329;23;20416;-79
2022/11/08 13:18:06;;;;;;;6.07;1.60;;;15.50;99.90;;;;;;6157397;23;20016;-79
2022/11/08 13:20:46;;;;;;;5.70;1.63;;;15.50;99.90;;;;;;6156829;23;20085;-83
2022/11/08 13:23:14;;;;;;;4.07;1.50;;;15.60;99.90;;;;;;6157652;23;20312;-80
2022/11/08 13:25:42;;;;;;;4.55;1.45;;;15.60;99.90;;;;;;6180126;23;20024;-80
2022/11/08 13:28:43;;;;;;;4.60;1.48;;;15.50;99.90;;;;;;6153682;23;20028;-75
2022/11/08 13:31:18;;;;;;;6.32;1.60;;;15.40;99.90;;;;;;6156600;23;20017;-79
2022/11/08 13:34:00;;;;;;;3.75;1.35;;;15.30;99.90;;;;;;6180514;23;20014;-85
2022/11/08 13:36:52;;;;;;;4.45;1.58;;;15.30;99.90;;;;;;6156122;23;20013;-81
2022/11/08 13:39:56;;;;;;;5.22;1.50;;;15.30;99.90;;;;;;6155694;23;20020;-86
2022/11/08 13:42:21;;;;;;;3.97;1.40;;;15.30;99.90;;;;;;6150594;23;20017;-82
2022/11/08 13:44:53;;;;;;;4.88;1.65;;;15.40;99.90;;;;;;6155292;23;20021;-81
2022/11/08 13:47:47;;;;;;;3.65;1.30;;;15.30;99.90;;;;;;6155808;23;20021;-81
2022/11/08 13:50:30;;;;;;;6.85;1.52;;;15.30;99.90;;;;;;6152829;23;20021;-80
2022/11/08 13:53:17;;;;;;;5.25;1.67;;;15.20;99.90;;;;;;6156811;23;20506;-82
2022/11/08 13:55:43;;;;;;;7.20;2.20;;;15.10;99.90;;;;;;6155003;23;20017;-83
2022/11/08 13:58:33;;;;;;;6.22;1.67;;;15.10;99.90;;;;;;6153923;23;20014;-84
2022/11/08 14:01:19;;;;;;;6.97;2.10;;;15.00;99.90;;;;;;6180491;23;20013;-83
2022/11/08 14:03:44;;;;;;;5.78;1.42;;;15.00;99.90;;;;;;6155220;23;20343;-81
2022/11/08 14:06:52;;;;;;;5.07;1.90;;;14.90;99.90;;;;;;6154511;23;20022;-83
2022/11/08 14:09:31;;;;;;;4.93;1.80;;;14.90;99.90;;;;;;6180070;23;20300;-83
2022/11/08 14:12:16;;;;;;;6.50;2.05;;;14.90;99.90;;;;;;6154965;23;20056;-84
2022/11/08 14:14:57;;;;;;;5.85;1.55;;;14.80;99.90;;;;;;6156844;23;20009;-79
2022/11/08 14:17:45;;;;;;;4.70;1.60;;;14.80;99.90;;;;;;6155230;23;20014;-83
2022/11/08 14:20:45;;;;;;;7.65;1.75;;;14.80;99.90;;;;;;6154996;23;20344;-82
2022/11/08 14:23:17;;;;;;;7.90;2.00;;;14.80;99.90;;;;;;6156315;23;20388;-81
2022/11/08 14:25:53;;;;;;;5.25;1.88;;;14.80;99.90;;;;;;6158935;23;20017;-82
2022/11/08 14:28:27;;;;;;;4.85;2.00;;;14.80;99.90;;;;;;6157961;23;20017;-80
2022/11/08 14:30:53;;;;;;;6.00;1.60;;;14.80;99.90;;;;;;6181716;23;20428;-82
2022/11/08 14:33:24;;;;;;;4.43;2.20;;;14.70;99.90;;;;;;6158993;23;20021;-81
2022/11/08 14:35:59;;;;;;;5.95;2.08;;;14.70;99.90;;;;;;6158957;23;20013;-79
2022/11/08 14:38:31;;;;;;;6.32;1.80;;;14.70;99.90;;;;;;6157236;23;20324;-82
2022/11/08 14:41:02;;;;;;;5.15;1.85;;;14.70;99.90;;;;;;6156784;23;20022;-81
2022/11/08 14:43:28;;;;;;;3.53;1.40;;;14.70;99.90;;;;;;6181425;23;20303;-79
2022/11/08 14:45:58;;;;;;;3.40;1.45;;;14.70;99.90;;;;;;6158590;23;20009;-82
2022/11/08 14:48:28;;;;;;;5.47;1.65;;;14.70;99.90;;;;;;6156838;23;20068;-82
2022/11/08 14:51:00;;;;;;;3.75;1.52;;;14.70;99.90;;;;;;6181133;23;20056;-84
2022/11/08 14:53:29;;;;;;;4.88;1.42;;;14.70;99.90;;;;;;6158091;23;20332;-80
2022/11/08 14:56:12;;;;;;;4.25;1.80;;;14.70;99.90;;;;;;6156106;23;20018;-84
2022/11/08 14:58:37;;;;;;;6.38;1.60;;;14.70;99.90;;;;;;6157075;23;20088;-82
2022/11/08 15:01:05;;;;;;;4.72;1.70;;;14.60;99.90;;;;;;6158690;23;20477;-81
2022/11/08 15:03:32;;;;;;;7.95;1.85;;;14.60;99.90;;;;;;6155768;23;20020;-80
2022/11/08 15:06:06;;;;;;;6.25;1.80;;;14.60;99.90;;;;;;6155937;23;20444;-81
2022/11/08 15:08:37;;;;;;;5.80;1.85;;;14.60;99.90;;;;;;6157885;23;20316;-82
2022/11/08 15:11:09;;;;;;;6.78;2.03;;;14.50;99.90;;;;;;6158466;23;20331;-83
2022/11/08 15:13:42;;;;;;;4.00;1.60;;;14.50;99.90;;;;;;6160779;23;20014;-80
2022/11/08 15:16:08;;;;;;;6.28;1.63;;;14.60;99.90;;;;;;6188630;23;20020;-82
2022/11/08 15:18:42;;;;;;;3.72;1.75;;;14.50;99.90;;;;;;6166641;23;20069;-80
2022/11/08 15:21:11;;;;;;;8.10;1.40;;;14.50;99.90;;;;;;6185972;23;20075;-84
2022/11/08 15:23:46;;;;;;;6.28;1.52;;;14.50;99.90;;;;;;6158898;23;20429;-82
2022/11/08 15:26:26;;;;;;;6.68;1.60;;;14.50;99.90;;;;;;6156406;23;20017;-84
2022/11/08 15:29:18;;;;;;;6.55;1.80;;;14.50;99.90;;;;;;6157964;23;20052;-78
2022/11/08 15:31:53;;;;;;;7.88;1.73;;;14.40;99.90;;;;;;6155423;23;20026;-84
2022/11/08 15:34:40;;;;;;;6.32;1.90;;;14.40;99.90;;;;;;6180948;23;20018;-79
2022/11/08 15:37:30;;;;;;;5.88;1.80;;;14.40;99.90;;;;;;6156096;23;20014;-83
2022/11/08 15:40:04;;;;;;;6.15;1.95;;;14.40;99.90;;;;;;6156108;23;20475;-83
2022/11/08 15:42:32;;;;;;;6.88;1.88;;;14.30;99.90;;;;;;6180983;23;20076;-80
2022/11/08 15:45:12;;;;;;;5.25;2.30;;;14.30;99.90;;;;;;6155765;23;20013;-79
2022/11/08 15:47:40;;;;;;;6.70;1.90;;;14.30;99.90;;;;;;6155482;23;20025;-82
2022/11/08 15:50:30;;;;;;;6.38;2.38;;;14.30;99.90;;;;;;6155432;23;20451;-82
2022/11/08 15:52:58;;;;;;;6.43;2.00;;;14.30;99.90;;;;;;6157388;23;20434;-80
2022/11/08 15:55:40;;;;;;;6.30;1.60;;;14.30;99.90;;;;;;6157352;23;20323;-81
2022/11/08 15:58:14;;;;;;;6.35;1.60;;;14.30;99.90;;;;;;6180479;23;20108;-84
2022/11/08 16:00:48;;;;;;;6.05;1.60;;;14.20;99.90;;;;;;6157703;23;20352;-80
2022/11/08 16:03:14;;;;;;;4.53;1.77;;;14.20;99.90;;;;;;6158234;23;20324;-83
2022/11/08 16:05:39;;;;;;;7.45;2.00;;;14.20;99.90;;;;;;6131004;23;20024;-80
2022/11/08 16:08:05;;;;;;;7.05;2.40;;;14.20;99.90;;;;;;6155119;23;20013;-78
2022/11/08 16:10:39;;;;;;;5.72;1.88;;;14.10;99.90;;;;;;6155552;23;20021;-81
2022/11/08 16:13:05;;;;;;;4.45;1.63;;;14.10;99.90;;;;;;6155486;23;20010;-78
2022/11/08 16:15:33;;;;;;;6.15;2.20;;;14.10;99.90;;;;;;6155746;23;20020;-81
2022/11/08 16:17:59;;;;;;;5.25;1.70;;;14.10;99.90;;;;;;6180449;23;20013;-83
2022/11/08 16:20:27;;;;;;;6.22;1.67;;;14.10;99.90;;;;;;6157469;23;20005;-79
2022/11/08 16:22:57;;;;;;;5.35;1.67;;;14.00;99.90;;;;;;6154969;23;20017;-80
2022/11/08 16:25:27;;;;;;;7.63;2.60;;;14.00;99.90;;;;;;6155600;23;20143;-82
2022/11/08 16:27:56;;;;;;;3.78;1.63;;;14.00;99.90;;;;;;6157514;23;20024;-84
2022/11/08 16:30:23;;;;;;;7.88;1.92;;;14.00;99.90;;;;;;6157045;23;20045;-81
2022/11/08 16:32:48;;;;;;;6.28;1.70;;;14.00;99.90;;;;;;6156729;23;20108;-82
2022/11/08 16:35:14;;;;;;;5.07;1.73;;;13.90;99.90;;;;;;6155074;23;20045;-80
2022/11/08 16:37:44;;;;;;;5.28;1.73;;;13.90;99.90;;;;;;6179745;23;20014;-86
2022/11/08 16:40:23;;;;;;;9.43;2.20;;;13.90;99.90;;;;;;6155093;23;20049;-81
2022/11/08 16:42:51;;;;;;;5.15;2.03;;;13.90;99.90;;;;;;6154950;23;20092;-81
2022/11/08 16:45:18;;;;;;;7.45;1.92;;;13.90;99.90;;;;;;6155522;23;20067;-80
2022/11/08 16:47:50;;;;;;;5.10;1.60;;;13.90;99.90;;;;;;6155080;23;20467;-82
2022/11/08 16:50:17;;;;;;;7.78;1.73;;;13.90;99.90;;;;;;6155486;23;20092;-81
2022/11/08 16:52:43;;;;;;;4.07;2.00;;;13.80;99.90;;;;;;6154851;23;20448;-78
2022/11/08 16:55:14;;;;;;;4.35;1.90;;;13.80;99.90;;;;;;6154707;23;20462;-85
2022/11/08 16:57:40;;;;;;;6.68;2.47;;;13.80;99.90;;;;;;6155222;23;20048;-82
2022/11/08 17:00:08;;;;;;;6.65;2.78;;;13.80;99.90;;;;;;6156279;23;20021;-82
2022/11/08 17:02:37;;;;;;;5.25;1.98;;;13.80;99.90;;;;;;6156449;23;20014;-83
2022/11/08 17:05:03;;;;;;;7.32;2.25;;;13.80;99.90;;;;;;6157092;23;20036;-78
2022/11/08 17:07:32;;;;;;;7.68;2.15;;;13.70;99.90;;;;;;6154518;23;20399;-78
2022/11/08 17:09:58;;;;;;;7.60;2.00;;;13.70;99.90;;;;;;6156693;23;20382;-79
2022/11/08 17:12:24;;;;;;;6.80;2.10;;;13.70;99.90;;;;;;6154143;23;20017;-80
2022/11/08 17:14:49;;;;;;;6.80;2.10;;;13.70;99.90;;;;;;6154512;23;20339;-78
2022/11/08 17:17:15;;;;;;;4.97;2.17;;;13.60;99.90;;;;;;6129133;23;20343;-79
2022/11/08 17:19:41;;;;;;;6.13;1.90;;;13.60;99.90;;;;;;6153680;23;20100;-78
2022/11/08 17:22:06;;;;;;;5.25;2.30;;;13.60;99.90;;;;;;6153237;23;20024;-80